Nieuwkoop, Netherlands
Current Conditions -  °F | °C
As of 7:25 AM on Saturday 29 Nov 2014 (Local Time) from EHAM Reporting Station
Clear Clear  
Wind Chill: 29°   Ceiling: Unl
Heat Index: 36°   Visibility: 4mi
Dew Point: 32°   Wind: 9mph
Humidity: 87%   Direction: 100°E
Pressure: 29.94"   Gusts: NA
Location:  52.15°N, 4.78°E
Report Text: EHAM 290625Z 10008KT 7000 NSC 02/00 Q1014 NOSIG
Loading
Personal Weather Stations






























Interactive Weather Map New forecast layout! Learn more

10-Day Weather Forecast

Advertisements
Track Severe Weather on mobile